createdAt,value
2023-03-29T00:01:43.240Z,100.00
2023-03-29T00:06:47.683Z,100.00
2023-03-29T00:11:49.057Z,100.00
2023-03-29T00:16:51.166Z,100.00
2023-03-29T00:21:52.781Z,100.00
2023-03-29T00:26:54.188Z,100.00
2023-03-29T00:31:56.041Z,100.00
2023-03-29T00:36:57.959Z,100.00
2023-03-29T00:41:59.452Z,100.00
2023-03-29T00:47:01.153Z,100.00
2023-03-29T00:52:03.510Z,100.00
2023-03-29T00:57:06.835Z,100.00
2023-03-29T01:02:09.175Z,100.00
2023-03-29T01:07:14.036Z,100.00
2023-03-29T01:12:19.730Z,100.00
2023-03-29T01:17:21.960Z,100.00
2023-03-29T01:22:25.875Z,100.00
2023-03-29T01:27:49.971Z,100.00
2023-03-29T01:32:55.499Z,100.00
2023-03-29T01:38:02.213Z,100.00
2023-03-29T01:48:21.213Z,100.00
2023-03-29T01:53:30.763Z,0.00
2023-03-29T01:58:33.933Z,100.00
2023-03-29T02:03:42.209Z,100.00
2023-03-29T02:08:44.928Z,86.67
2023-03-29T02:13:48.040Z,100.00
2023-03-29T02:18:52.741Z,100.00
2023-03-29T02:23:55.509Z,100.00
2023-03-29T02:28:56.935Z,100.00
2023-03-29T02:33:58.765Z,64.67
2023-03-29T02:39:04.545Z,100.00
2023-03-29T02:44:08.105Z,100.00
2023-03-29T02:49:10.517Z,100.00
2023-03-29T02:54:13.634Z,100.00
2023-03-29T02:59:16.612Z,100.00
2023-03-29T03:04:20.542Z,100.00
2023-03-29T03:14:23.492Z,100.00
2023-03-29T03:19:25.204Z,100.00
2023-03-29T03:24:28.020Z,100.00
2023-03-29T03:29:30.044Z,64.67
2023-03-29T03:39:47.751Z,100.00
2023-03-29T03:55:13.185Z,100.00
2023-03-29T04:00:20.315Z,100.00
2023-03-29T04:05:32.723Z,64.67
2023-03-29T04:10:34.673Z,100.00
2023-03-29T04:15:46.082Z,100.00
2023-03-29T04:20:49.484Z,100.00
2023-03-29T04:25:55.351Z,100.00
2023-03-29T04:36:41.854Z,100.00
2023-03-29T04:41:51.567Z,100.00
2023-03-29T04:47:01.101Z,100.00
2023-03-29T04:52:24.650Z,100.00
2023-03-29T04:57:27.085Z,100.00
2023-03-29T05:02:44.748Z,100.00
2023-03-29T05:07:47.942Z,100.00
2023-03-29T05:12:53.845Z,100.00
2023-03-29T05:17:57.081Z,100.00
2023-03-29T05:22:58.661Z,100.00
2023-03-29T05:28:39.418Z,100.00
2023-03-29T05:33:42.377Z,86.67
2023-03-29T05:38:47.898Z,100.00
2023-03-29T05:43:49.479Z,64.67
2023-03-29T05:48:51.925Z,100.00
2023-03-29T05:53:55.817Z,100.00
2023-03-29T05:58:58.511Z,86.67
2023-03-29T06:04:00.945Z,86.67
2023-03-29T06:14:27.645Z,100.00
2023-03-29T06:19:39.731Z,64.67
2023-03-29T06:24:41.475Z,100.00
2023-03-29T06:29:50.314Z,100.00
2023-03-29T06:34:52.092Z,100.00
2023-03-29T06:45:20.565Z,100.00
2023-03-29T06:50:26.123Z,100.00
2023-03-29T06:55:47.959Z,86.67
2023-03-29T07:01:11.438Z,64.67
2023-03-29T07:11:25.099Z,86.67
2023-03-29T07:16:30.183Z,86.67
2023-03-29T07:21:51.543Z,64.67
2023-03-29T07:27:03.124Z,86.67
2023-03-29T07:37:26.372Z,86.67
2023-03-29T07:42:30.212Z,86.67
2023-03-29T07:47:32.113Z,86.67
2023-03-29T07:52:33.974Z,86.67
2023-03-29T07:57:35.873Z,86.67
2023-03-29T08:02:38.043Z,86.67
2023-03-29T08:07:41.268Z,98.51
2023-03-29T08:13:07.316Z,98.51
2023-03-29T08:18:19.973Z,98.51
2023-03-29T08:23:21.505Z,98.51
2023-03-29T08:28:47.638Z,98.51
2023-03-29T08:33:51.901Z,95.18
2023-03-29T08:39:11.542Z,95.18
2023-03-29T08:44:21.691Z,92.18
2023-03-29T08:49:29.085Z,91.85
2023-03-29T08:54:36.970Z,92.04
2023-03-29T08:59:45.549Z,91.87
2023-03-29T09:04:50.683Z,90.72
2023-03-29T09:10:17.643Z,91.10
2023-03-29T09:15:24.842Z,86.75
2023-03-29T09:20:51.943Z,85.06
2023-03-29T09:26:06.687Z,83.63
2023-03-29T09:31:29.676Z,81.28
2023-03-29T09:36:32.003Z,78.96
2023-03-29T09:41:37.467Z,79.05
2023-03-29T09:46:43.959Z,78.96
2023-03-29T09:51:48.001Z,79.04
2023-03-29T09:56:49.861Z,77.60
2023-03-29T10:02:04.811Z,78.06
2023-03-29T10:07:06.597Z,76.61
2023-03-29T10:12:08.447Z,76.07
2023-03-29T10:17:18.298Z,75.12
2023-03-29T10:22:23.110Z,74.36
2023-03-29T10:27:26.986Z,74.01
2023-03-29T10:32:33.549Z,72.23
2023-03-29T10:37:35.083Z,72.14
2023-03-29T10:42:37.330Z,71.84
2023-03-29T10:47:38.697Z,71.91
2023-03-29T10:52:40.224Z,71.45
2023-03-29T10:57:47.772Z,71.16
2023-03-29T11:02:49.273Z,69.64
2023-03-29T11:07:59.692Z,70.54
2023-03-29T11:13:09.540Z,69.82
2023-03-29T11:18:13.752Z,71.33
2023-03-29T11:23:24.258Z,70.82
2023-03-29T11:28:44.338Z,70.69
2023-03-29T11:33:51.969Z,70.23
2023-03-29T11:39:04.333Z,71.49
2023-03-29T11:44:10.317Z,71.04
2023-03-29T11:49:15.210Z,71.44
2023-03-29T11:54:20.545Z,73.16
2023-03-29T11:59:25.003Z,71.65
2023-03-29T12:04:30.227Z,70.96
2023-03-29T12:09:34.695Z,71.49
2023-03-29T12:14:46.807Z,70.76
2023-03-29T12:20:06.613Z,70.73
2023-03-29T12:25:17.373Z,70.14
2023-03-29T12:30:33.899Z,69.49
2023-03-29T12:35:49.567Z,70.23
2023-03-29T12:41:35.990Z,68.79
2023-03-29T12:47:06.498Z,69.76
2023-03-29T12:52:17.385Z,69.51
2023-03-29T12:57:21.116Z,71.49
2023-03-29T13:02:22.606Z,68.87
2023-03-29T13:07:24.184Z,69.10
2023-03-29T13:12:27.106Z,70.19
2023-03-29T13:17:51.329Z,69.64
2023-03-29T13:23:11.291Z,68.79
2023-03-29T13:28:26.947Z,69.13
2023-03-29T13:33:38.168Z,68.84
2023-03-29T13:38:46.936Z,67.70
2023-03-29T13:43:55.294Z,68.38
2023-03-29T13:49:20.376Z,68.79
2023-03-29T13:54:34.836Z,67.67
2023-03-29T13:59:56.982Z,68.09
2023-03-29T14:05:00.202Z,68.56
2023-03-29T14:10:02.027Z,67.33
2023-03-29T14:15:06.235Z,67.21
2023-03-29T14:20:09.572Z,67.17
2023-03-29T14:25:16.018Z,68.13
2023-03-29T14:30:22.612Z,67.12
2023-03-29T14:35:29.427Z,66.44
2023-03-29T14:40:30.994Z,65.56
2023-03-29T14:45:32.550Z,66.11
2023-03-29T14:50:34.631Z,64.83
2023-03-29T14:55:36.570Z,66.83
2023-03-29T15:00:42.414Z,67.16
2023-03-29T15:05:47.921Z,67.48
2023-03-29T15:10:49.722Z,66.99
2023-03-29T15:15:53.775Z,68.30
2023-03-29T15:20:55.458Z,69.59
2023-03-29T15:25:58.612Z,69.58
2023-03-29T15:31:19.481Z,70.41
2023-03-29T15:36:21.753Z,70.23
2023-03-29T15:41:23.308Z,70.74
2023-03-29T15:46:24.803Z,71.41
2023-03-29T15:51:26.397Z,71.89
2023-03-29T15:56:27.932Z,72.35
2023-03-29T16:01:37.302Z,72.45
2023-03-29T16:06:39.049Z,72.62
2023-03-29T16:11:41.429Z,72.78
2023-03-29T16:16:42.892Z,73.90
2023-03-29T16:21:44.925Z,73.69
2023-03-29T16:26:46.751Z,73.84
2023-03-29T16:31:48.744Z,74.70
2023-03-29T16:36:50.664Z,76.28
2023-03-29T16:41:52.068Z,76.92
2023-03-29T16:46:58.277Z,75.91
2023-03-29T16:51:59.730Z,76.12
2023-03-29T16:57:01.162Z,76.91
2023-03-29T17:02:02.585Z,77.51
2023-03-29T17:07:04.028Z,78.66
2023-03-29T17:12:05.781Z,79.04
2023-03-29T17:17:07.326Z,79.83
2023-03-29T17:22:08.741Z,80.79
2023-03-29T17:27:10.188Z,81.53
2023-03-29T17:32:11.589Z,82.22
2023-03-29T17:37:13.142Z,82.81
2023-03-29T17:42:16.059Z,83.94
2023-03-29T17:47:17.725Z,84.62
2023-03-29T17:52:19.256Z,85.39
2023-03-29T17:57:21.045Z,85.98
2023-03-29T18:02:24.509Z,87.09
2023-03-29T18:07:26.058Z,87.29
2023-03-29T18:12:28.421Z,88.16
2023-03-29T18:17:29.968Z,88.21
2023-03-29T18:22:34.071Z,89.21
2023-03-29T18:27:36.361Z,90.74
2023-03-29T18:32:37.807Z,91.47
2023-03-29T18:37:39.313Z,91.98
2023-03-29T18:42:40.880Z,91.53
2023-03-29T18:47:42.545Z,92.05
2023-03-29T18:52:44.064Z,93.23
2023-03-29T18:57:45.437Z,93.02
2023-03-29T19:02:47.065Z,92.42
2023-03-29T19:07:48.466Z,92.72
2023-03-29T19:12:50.069Z,93.41
2023-03-29T19:17:51.480Z,93.13
2023-03-29T19:22:53.515Z,92.79
2023-03-29T19:27:54.914Z,91.72
2023-03-29T19:32:56.375Z,91.67
2023-03-29T19:37:57.857Z,91.44
2023-03-29T19:42:59.214Z,91.05
2023-03-29T19:48:03.338Z,90.33
2023-03-29T19:53:05.120Z,90.05
2023-03-29T19:58:07.046Z,90.12
2023-03-29T20:03:12.394Z,90.19
2023-03-29T20:08:13.930Z,89.64
2023-03-29T20:13:21.863Z,89.75
2023-03-29T20:18:29.200Z,89.57
2023-03-29T20:23:31.473Z,89.84
2023-03-29T20:28:33.361Z,89.39
2023-03-29T20:33:34.818Z,89.88
2023-03-29T20:38:36.258Z,89.55
2023-03-29T20:43:37.898Z,90.34
2023-03-29T20:48:52.886Z,90.21
2023-03-29T20:54:02.080Z,90.21
2023-03-29T20:59:04.034Z,89.90
2023-03-29T21:04:08.062Z,90.04
2023-03-29T21:09:09.548Z,90.44
2023-03-29T21:14:10.984Z,92.00
2023-03-29T21:19:12.812Z,90.95
2023-03-29T21:24:14.795Z,92.16
2023-03-29T21:29:16.211Z,91.45
2023-03-29T21:34:17.569Z,92.30
2023-03-29T21:39:18.997Z,91.89
2023-03-29T21:44:20.394Z,92.53
2023-03-29T21:49:21.791Z,91.95
2023-03-29T21:54:23.216Z,91.65
2023-03-29T21:59:24.597Z,92.47
2023-03-29T22:04:36.007Z,91.99
2023-03-29T22:09:42.267Z,91.87
2023-03-29T22:14:43.662Z,91.33
2023-03-29T22:19:45.081Z,89.79
2023-03-29T22:24:46.741Z,87.49
2023-03-29T22:29:48.377Z,86.95
2023-03-29T22:34:49.789Z,85.31
2023-03-29T22:39:51.550Z,84.29
2023-03-29T22:44:52.914Z,82.54
2023-03-29T22:49:54.305Z,82.47
2023-03-29T22:54:55.796Z,82.29
2023-03-29T22:59:57.190Z,81.85
2023-03-29T23:04:58.774Z,80.90
2023-03-29T23:10:00.211Z,81.01
2023-03-29T23:15:03.245Z,79.86
2023-03-29T23:20:05.989Z,78.65
2023-03-29T23:25:07.718Z,79.04
2023-03-29T23:30:10.537Z,79.44
2023-03-29T23:35:12.140Z,79.22
2023-03-29T23:40:14.174Z,78.11
2023-03-29T23:45:18.034Z,78.63
2023-03-29T23:50:19.455Z,78.45
2023-03-29T23:55:20.895Z,79.06
